Time;durP1;ratioP1;P1;durP2;ratioP2;P2;SDS_P1;SDS_P2;PMS_P1;PMS_P2;Temp;Humidity;BMP_temperature;BMP_pressure;BME280_temperature;BME280_humidity;BME280_pressure;Samples;Min_cycle;Max_cycle;Signal;HPM_P1;HPM_P2
2023/04/02 00:00:10;;;;;;;6.88;6.38;;;;;;;6.33;100.00;101075.06;5089929;28;20026;-35
2023/04/02 00:03:03;;;;;;;7.10;6.43;;;;;;;6.30;100.00;101082.69;5090335;28;20050;-35
2023/04/02 00:05:49;;;;;;;6.47;5.97;;;;;;;6.35;100.00;101085.63;5087590;28;20115;-35
2023/04/02 00:08:28;;;;;;;6.68;6.07;;;;;;;6.29;100.00;101091.75;5089791;28;20021;-35
2023/04/02 00:11:01;;;;;;;6.47;5.88;;;;;;;6.32;100.00;101092.22;5089897;28;20107;-35
2023/04/02 00:13:35;;;;;;;6.45;5.95;;;;;;;6.28;100.00;101107.06;5077488;28;20031;-35
2023/04/02 00:16:04;;;;;;;6.10;5.60;;;;;;;6.17;100.00;101104.91;5076632;28;20066;-35
2023/04/02 00:18:31;;;;;;;6.10;5.50;;;;;;;6.22;100.00;101102.47;5076627;28;20028;-35
2023/04/02 00:21:20;;;;;;;5.38;4.88;;;;;;;6.13;100.00;101099.09;5076775;28;20020;-35
2023/04/02 00:23:45;;;;;;;5.97;5.45;;;;;;;6.02;100.00;101110.38;5076475;28;20074;-35
2023/04/02 00:26:30;;;;;;;5.53;5.03;;;;;;;6.01;100.00;101126.69;5077017;28;20020;-35
2023/04/02 00:28:57;;;;;;;5.85;5.35;;;;;;;5.92;100.00;101113.41;5076953;28;20024;-35
2023/04/02 00:31:23;;;;;;;4.93;4.53;;;;;;;6.04;100.00;101119.06;5076392;28;20028;-35
2023/04/02 00:33:49;;;;;;;6.13;5.47;;;;;;;6.05;100.00;101122.56;5075960;28;20345;-35
2023/04/02 00:36:18;;;;;;;5.15;4.75;;;;;;;6.16;100.00;101136.31;5076920;28;20024;-35
2023/04/02 00:38:45;;;;;;;5.22;4.80;;;;;;;6.16;100.00;101138.16;5075903;28;20028;-35
2023/04/02 00:41:17;;;;;;;5.70;5.20;;;;;;;6.11;100.00;101138.75;5076346;28;20029;-35
2023/04/02 00:43:45;;;;;;;6.22;5.65;;;;;;;6.07;100.00;101147.38;5076699;28;20024;-35
2023/04/02 00:46:15;;;;;;;6.63;6.10;;;;;;;5.99;100.00;101155.56;5076080;28;20512;-35
2023/04/02 00:48:47;;;;;;;6.70;6.18;;;;;;;5.96;100.00;101159.47;5075381;28;20380;-35
2023/04/02 00:51:22;;;;;;;6.85;6.30;;;;;;;6.05;100.00;101158.34;5075779;28;20043;-35
2023/04/02 00:53:50;;;;;;;6.82;6.13;;;;;;;6.03;100.00;101163.03;5075343;28;20017;-35
2023/04/02 00:56:39;;;;;;;7.20;6.60;;;;;;;6.01;100.00;101164.28;5075953;28;20035;-35
2023/04/02 00:59:15;;;;;;;6.90;6.30;;;;;;;5.98;100.00;101162.78;5075844;28;20108;-35
2023/04/02 01:01:41;;;;;;;6.50;5.90;;;;;;;6.04;100.00;101166.56;5075292;28;20105;-35
2023/04/02 01:04:26;;;;;;;7.32;6.63;;;;;;;6.00;100.00;101176.84;5075498;28;20024;-35
2023/04/02 01:06:52;;;;;;;6.57;6.03;;;;;;;6.00;100.00;101174.16;5075365;28;20020;-35
2023/04/02 01:09:36;;;;;;;6.43;5.75;;;;;;;6.06;100.00;101184.16;5075675;28;20020;-35
2023/04/02 01:12:28;;;;;;;6.13;5.63;;;;;;;5.98;100.00;101180.75;5075864;28;20371;-35
2023/04/02 01:15:14;;;;;;;5.90;5.40;;;;;;;6.09;100.00;101190.97;5075849;28;20036;-35
2023/04/02 01:18:00;;;;;;;6.70;6.10;;;;;;;6.02;100.00;101209.72;5071715;28;20453;-35
2023/04/02 01:20:44;;;;;;;7.78;6.88;;;;;;;5.99;100.00;101201.22;5074780;28;20020;-35
2023/04/02 01:23:34;;;;;;;7.65;6.95;;;;;;;5.93;100.00;101205.50;5074478;28;20021;-35
2023/04/02 01:26:20;;;;;;;7.45;6.75;;;;;;;5.86;100.00;101216.16;5075335;28;20059;-35
2023/04/02 01:29:19;;;;;;;7.30;6.63;;;;;;;5.78;100.00;101218.94;5075264;28;20021;-35
2023/04/02 01:31:47;;;;;;;6.63;5.57;;;;;;;5.81;100.00;101226.63;5075746;28;20021;-35
2023/04/02 01:34:17;;;;;;;7.45;6.75;;;;;;;5.73;100.00;101221.34;5075141;28;20029;-35
2023/04/02 01:37:31;;;;;;;7.68;6.82;;;;;;;5.67;100.00;101230.19;5074522;28;20025;-35
2023/04/02 01:40:05;;;;;;;7.00;6.07;;;;;;;5.72;100.00;101235.81;5074354;28;20456;-35
2023/04/02 01:42:51;;;;;;;6.75;6.15;;;;;;;5.82;100.00;101240.88;5074959;28;20025;-35
2023/04/02 01:45:20;;;;;;;7.68;6.63;;;;;;;5.67;100.00;101230.19;5075005;28;20063;-35
2023/04/02 01:47:47;;;;;;;6.90;6.20;;;;;;;5.67;100.00;101248.97;5074796;28;20032;-35
2023/04/02 01:50:18;;;;;;;6.68;5.97;;;;;;;5.73;100.00;101248.19;5074291;28;20024;-35
2023/04/02 01:52:47;;;;;;;6.35;5.72;;;;;;;5.68;100.00;101261.34;5075004;28;20032;-35
2023/04/02 01:55:17;;;;;;;5.28;4.85;;;;;;;5.64;100.00;101268.94;5074426;28;20047;-35
2023/04/02 01:57:48;;;;;;;5.80;5.30;;;;;;;5.60;100.00;101266.81;5074660;28;20036;-35
2023/04/02 02:00:15;;;;;;;5.90;5.38;;;;;;;5.73;100.00;101269.66;5074434;28;20359;-35
2023/04/02 02:02:43;;;;;;;5.68;5.13;;;;;;;5.67;100.00;101275.78;5074561;28;20032;-35
2023/04/02 02:05:14;;;;;;;5.25;4.75;;;;;;;5.73;100.00;101276.88;5073950;28;20036;-35
2023/04/02 02:07:40;;;;;;;4.50;4.10;;;;;;;5.68;100.00;101288.19;5074508;28;20016;-35
2023/04/02 02:10:13;;;;;;;4.28;3.90;;;;;;;5.68;100.00;101286.31;5075026;28;20356;-35
2023/04/02 02:12:39;;;;;;;4.50;4.10;;;;;;;5.56;100.00;101285.16;5074222;28;20027;-35
2023/04/02 02:15:13;;;;;;;4.55;3.67;;;;;;;5.57;100.00;101297.53;5074411;28;20060;-35
2023/04/02 02:17:39;;;;;;;4.47;3.75;;;;;;;5.56;100.00;101295.88;5073761;28;20024;-35
2023/04/02 02:20:11;;;;;;;4.07;3.78;;;;;;;5.53;100.00;101300.78;5074512;28;20021;-35
2023/04/02 02:22:42;;;;;;;4.90;3.97;;;;;;;5.52;100.00;101307.19;5074491;28;20074;-35
2023/04/02 02:25:14;;;;;;;4.75;4.25;;;;;;;5.55;100.00;101315.66;5074806;28;20033;-35
2023/04/02 02:27:46;;;;;;;5.93;4.70;;;;;;;5.47;100.00;101306.91;5073869;28;20020;-35
2023/04/02 02:30:28;;;;;;;5.00;4.50;;;;;;;5.57;100.00;101321.69;5074247;28;20044;-35
2023/04/02 02:33:24;;;;;;;5.45;4.95;;;;;;;5.43;100.00;101333.25;5074094;28;20024;-35
2023/04/02 02:35:56;;;;;;;7.28;5.32;;;;;;;5.52;100.00;101339.38;5071309;28;20060;-35
2023/04/02 02:38:46;;;;;;;5.68;5.10;;;;;;;5.52;100.00;101329.47;5074061;28;20032;-35
2023/04/02 02:41:33;;;;;;;5.75;5.25;;;;;;;5.54;100.00;101346.19;5073295;28;20082;-35
2023/04/02 02:44:04;;;;;;;5.85;5.32;;;;;;;5.54;100.00;101353.41;5073682;28;20032;-35
2023/04/02 02:46:32;;;;;;;6.07;5.30;;;;;;;5.29;100.00;101332.22;5074177;28;20425;-35
2023/04/02 02:48:59;;;;;;;5.30;4.80;;;;;;;5.45;100.00;101365.25;5074198;28;20463;-35
2023/04/02 02:51:38;;;;;;;5.00;4.60;;;;;;;5.45;100.00;101358.03;5074028;28;20031;-35
2023/04/02 02:54:04;;;;;;;4.93;4.45;;;;;;;5.42;100.00;101369.16;5073530;28;20037;-35
2023/04/02 02:56:36;;;;;;;5.32;4.75;;;;;;;5.35;100.00;101377.09;5074167;28;20104;-35
2023/04/02 02:59:06;;;;;;;5.82;5.32;;;;;;;5.34;100.00;101383.47;5074310;28;20056;-35
2023/04/02 03:01:32;;;;;;;5.50;5.00;;;;;;;5.24;100.00;101382.06;5074066;28;20037;-35
2023/04/02 03:03:58;;;;;;;5.95;5.43;;;;;;;5.25;100.00;101383.72;5073529;28;20023;-35
2023/04/02 03:06:24;;;;;;;6.45;5.65;;;;;;;5.25;100.00;101389.09;5073777;28;20016;-35
2023/04/02 03:08:57;;;;;;;5.97;5.45;;;;;;;5.14;100.00;101387.69;5073231;28;20021;-35
2023/04/02 03:11:35;;;;;;;7.35;5.47;;;;;;;5.19;100.00;101393.34;5073507;28;20105;-35
2023/04/02 03:14:14;;;;;;;6.03;5.30;;;;;;;5.12;100.00;101398.63;5073744;28;20031;-35
2023/04/02 03:16:44;;;;;;;6.18;5.43;;;;;;;5.08;100.00;101402.66;5073729;28;20431;-35
2023/04/02 03:19:34;;;;;;;6.32;5.43;;;;;;;5.14;100.00;101411.81;5073450;28;20024;-35
2023/04/02 03:22:13;;;;;;;5.97;5.38;;;;;;;5.04;100.00;101414.75;5073502;28;20024;-35
2023/04/02 03:24:53;;;;;;;5.78;5.28;;;;;;;4.89;100.00;101411.19;5073937;28;20154;-35
2023/04/02 03:27:27;;;;;;;6.22;5.13;;;;;;;5.04;100.00;101421.97;5073848;28;20024;-35
2023/04/02 03:30:11;;;;;;;6.40;5.80;;;;;;;4.95;100.00;101447.16;5073546;28;20020;-36
2023/04/02 03:32:41;;;;;;;7.22;5.78;;;;;;;4.85;100.00;101448.25;5073795;28;20069;-35
2023/04/02 03:35:21;;;;;;;6.57;5.35;;;;;;;4.80;100.00;101463.19;5073752;28;20445;-35
2023/04/02 03:37:57;;;;;;;5.70;5.18;;;;;;;4.85;100.00;101464.31;5073473;28;20013;-35
2023/04/02 03:40:29;;;;;;;5.50;5.00;;;;;;;4.89;100.00;101471.00;5073360;28;20082;-35
2023/04/02 03:43:25;;;;;;;6.10;5.50;;;;;;;4.83;100.00;101481.56;5072874;28;20028;-36
2023/04/02 03:46:15;;;;;;;6.78;5.30;;;;;;;4.82;100.00;101479.91;5063956;28;20032;-36
2023/04/02 03:48:50;;;;;;;6.50;5.35;;;;;;;4.81;100.00;101483.59;5076498;28;20047;-35
2023/04/02 03:51:44;;;;;;;5.97;5.38;;;;;;;4.85;100.00;101493.78;5077649;28;20021;-35
2023/04/02 03:54:14;;;;;;;5.93;5.32;;;;;;;4.84;100.00;101493.97;5075949;28;20040;-35
2023/04/02 03:56:40;;;;;;;6.13;5.53;;;;;;;4.84;100.00;101502.84;5077020;28;20031;-36
2023/04/02 03:59:25;;;;;;;6.63;5.47;;;;;;;4.80;100.00;101498.84;5076404;28;20452;-35
2023/04/02 04:02:12;;;;;;;5.65;5.15;;;;;;;4.85;100.00;101517.91;5076365;28;20036;-36
2023/04/02 04:04:40;;;;;;;5.75;5.15;;;;;;;4.91;100.00;101514.53;5077438;28;20365;-36
2023/04/02 04:07:15;;;;;;;6.18;5.20;;;;;;;4.88;100.00;101506.00;5076493;28;20021;-35
2023/04/02 04:09:44;;;;;;;5.95;5.38;;;;;;;4.93;100.00;101513.50;5076774;28;20024;-36
2023/04/02 04:12:25;;;;;;;6.05;4.80;;;;;;;4.94;100.00;101516.03;5077158;28;20150;-35
2023/04/02 04:14:59;;;;;;;7.00;5.65;;;;;;;4.98;100.00;101527.19;5076609;28;20028;-35
2023/04/02 04:17:52;;;;;;;6.57;5.90;;;;;;;4.94;100.00;101540.16;5076371;28;20028;-35
2023/04/02 04:20:23;;;;;;;8.20;5.72;;;;;;;4.98;100.00;101545.97;5076502;28;20078;-36
2023/04/02 04:22:54;;;;;;;7.13;5.28;;;;;;;4.89;100.00;101555.91;5076539;28;20016;-35
2023/04/02 04:25:28;;;;;;;5.75;5.25;;;;;;;4.80;100.00;101535.53;5076783;28;20162;-35
2023/04/02 04:28:09;;;;;;;6.30;5.68;;;;;;;4.73;100.00;101570.22;5076441;28;20032;-36
2023/04/02 04:31:02;;;;;;;5.68;5.07;;;;;;;4.77;100.00;101573.38;5076122;28;20032;-35
2023/04/02 04:33:38;;;;;;;6.00;5.40;;;;;;;4.69;100.00;101585.00;5075787;28;20051;-35
2023/04/02 04:36:05;;;;;;;5.63;4.90;;;;;;;4.70;100.00;101592.03;5076610;28;20033;-36
2023/04/02 04:38:38;;;;;;;5.70;4.45;;;;;;;4.70;100.00;101600.06;5075992;28;20044;-35
2023/04/02 04:41:23;;;;;;;4.22;3.83;;;;;;;4.64;100.00;101601.59;5075659;28;20038;-36
2023/04/02 04:43:55;;;;;;;4.30;3.65;;;;;;;4.69;100.00;101611.78;5076425;28;20039;-35
2023/04/02 04:46:27;;;;;;;4.35;3.95;;;;;;;4.61;100.00;101611.81;5076379;28;20086;-36
2023/04/02 04:49:11;;;;;;;4.22;3.83;;;;;;;4.56;100.00;101622.22;5075781;28;20039;-36
2023/04/02 04:51:53;;;;;;;5.97;4.30;;;;;;;4.54;100.00;101626.88;5076566;28;20066;-35
2023/04/02 04:54:19;;;;;;;6.57;4.38;;;;;;;4.43;100.00;101616.56;5075974;28;20020;-35
2023/04/02 04:56:52;;;;;;;6.90;4.78;;;;;;;4.45;100.00;101630.63;5075953;28;20020;-35
2023/04/02 04:59:25;;;;;;;5.22;4.03;;;;;;;4.35;100.00;101637.00;5075472;28;20099;-35
2023/04/02 05:02:02;;;;;;;5.57;4.65;;;;;;;4.38;100.00;101646.53;5076338;28;20048;-35
2023/04/02 05:04:27;;;;;;;6.65;5.10;;;;;;;4.28;100.00;101638.69;5075854;28;20044;-35
2023/04/02 05:06:55;;;;;;;6.50;5.03;;;;;;;4.27;100.00;101647.72;5075518;28;20350;-35
2023/04/02 05:09:39;;;;;;;6.80;4.78;;;;;;;4.25;100.00;101662.28;5075616;28;20035;-35
2023/04/02 05:12:04;;;;;;;6.45;5.07;;;;;;;4.31;100.00;101664.28;5075653;28;20111;-35
2023/04/02 05:14:39;;;;;;;5.80;5.03;;;;;;;4.30;100.00;101674.16;5075007;28;20413;-35
2023/04/02 05:17:28;;;;;;;5.93;5.18;;;;;;;4.25;100.00;101676.53;5075546;28;20074;-35
2023/04/02 05:19:56;;;;;;;5.43;4.88;;;;;;;4.28;100.00;101676.16;5075115;28;20392;-35
2023/04/02 05:23:02;;;;;;;5.28;4.78;;;;;;;4.25;100.00;101668.50;5075412;28;20028;-35
2023/04/02 05:25:30;;;;;;;6.13;4.60;;;;;;;4.37;100.00;101679.66;5075354;28;20032;-35
2023/04/02 05:28:21;;;;;;;6.40;5.20;;;;;;;4.36;100.00;101684.19;5075273;28;20074;-35
2023/04/02 05:30:51;;;;;;;7.05;4.78;;;;;;;4.43;100.00;101684.34;5075579;28;20102;-35
2023/04/02 05:33:30;;;;;;;7.88;4.72;;;;;;;4.39;100.00;101689.22;5074551;28;20032;-36
2023/04/02 05:36:08;;;;;;;6.43;5.00;;;;;;;4.34;100.00;101691.56;5075439;28;20053;-35
2023/04/02 05:38:36;;;;;;;7.10;4.50;;;;;;;4.38;100.00;101697.41;5075102;28;20400;-35
2023/04/02 05:41:17;;;;;;;4.95;4.50;;;;;;;4.26;100.00;101683.53;5074665;28;20024;-35
2023/04/02 05:43:48;;;;;;;8.27;5.60;;;;;;;4.32;100.00;101700.75;5074668;28;20017;-35
2023/04/02 05:46:17;;;;;;;6.50;5.82;;;;;;;4.34;100.00;101710.31;5074676;28;20020;-35
2023/04/02 05:48:48;;;;;;;7.72;6.35;;;;;;;4.27;100.00;101714.66;5074532;28;20028;-35
2023/04/02 05:51:19;;;;;;;8.82;6.57;;;;;;;4.23;100.00;101734.72;5075198;28;20039;-36
2023/04/02 05:53:54;;;;;;;6.35;5.75;;;;;;;4.20;100.00;101727.06;5075072;28;20342;-35
2023/04/02 05:56:24;;;;;;;8.60;6.28;;;;;;;4.19;100.00;101730.72;5074407;28;20024;-35
2023/04/02 05:59:01;;;;;;;6.75;5.75;;;;;;;4.16;100.00;101733.75;5074124;28;20016;-36
2023/04/02 06:01:44;;;;;;;7.25;6.40;;;;;;;4.19;100.00;101757.50;5074587;28;20082;-35
2023/04/02 06:04:25;;;;;;;6.35;5.60;;;;;;;4.19;100.00;101757.50;5075161;28;20113;-35
2023/04/02 06:07:11;;;;;;;7.05;5.72;;;;;;;4.12;100.00;101773.38;5074254;28;20028;-35
2023/04/02 06:09:42;;;;;;;6.05;5.20;;;;;;;4.18;100.00;101774.56;5074136;28;20050;-35
2023/04/02 06:12:23;;;;;;;7.32;4.88;;;;;;;4.11;100.00;101768.22;5074215;28;20028;-35
2023/04/02 06:14:48;;;;;;;7.28;5.30;;;;;;;4.12;100.00;101791.28;5074399;28;20051;-35
2023/04/02 06:17:16;;;;;;;5.57;4.13;;;;;;;3.91;100.00;101774.88;5074737;28;20385;-35
2023/04/02 06:19:41;;;;;;;6.10;4.32;;;;;;;3.96;100.00;101812.69;5073978;28;20024;-35
2023/04/02 06:22:33;;;;;;;5.93;4.20;;;;;;;4.00;100.00;101816.69;5074293;28;20373;-35
2023/04/02 06:25:09;;;;;;;6.00;3.90;;;;;;;3.92;100.00;101808.66;5071784;28;20040;-35
2023/04/02 06:27:36;;;;;;;9.68;4.32;;;;;;;3.85;100.00;101821.84;5073685;28;20020;-35
2023/04/02 06:30:05;;;;;;;4.72;3.85;;;;;;;3.87;100.00;101825.19;5074134;28;20420;-35
2023/04/02 06:32:31;;;;;;;4.30;3.90;;;;;;;3.92;100.00;101832.75;5073548;28;20024;-35
2023/04/02 06:34:57;;;;;;;6.93;3.80;;;;;;;3.76;100.00;101823.66;5073560;28;20074;-35
2023/04/02 06:37:24;;;;;;;9.30;3.80;;;;;;;3.91;100.00;101834.59;5074322;28;20107;-35
2023/04/02 06:39:50;;;;;;;5.40;3.70;;;;;;;3.77;100.00;101833.38;5074576;28;20040;-35
2023/04/02 06:42:23;;;;;;;5.37;3.60;;;;;;;3.82;100.00;101847.09;5074010;28;20024;-35
2023/04/02 06:44:49;;;;;;;6.28;3.50;;;;;;;3.92;100.00;101848.81;5074319;28;20103;-35
2023/04/02 06:47:37;;;;;;;5.35;3.95;;;;;;;4.07;100.00;101855.19;5073676;28;20441;-35
2023/04/02 06:50:07;;;;;;;;;;;;;;;3.92;100.00;101871.03;5074350;28;20016;-35
2023/04/02 06:52:45;;;;;;;7.72;3.60;;;;;;;3.79;100.00;101866.13;5073898;28;19908;-35
2023/04/02 06:55:33;;;;;;;3.72;3.20;;;;;;;3.78;100.00;101883.19;5074448;28;20341;-35
2023/04/02 06:57:59;;;;;;;6.47;3.20;;;;;;;3.71;100.00;101876.81;5073758;28;20406;-35
2023/04/02 07:00:34;;;;;;;5.20;3.60;;;;;;;3.75;100.00;101886.19;5073317;28;20108;-35
2023/04/02 07:03:04;;;;;;;5.40;3.10;;;;;;;3.69;100.00;101868.09;5073825;28;20476;-35
2023/04/02 07:05:30;;;;;;;4.47;2.83;;;;;;;3.72;100.00;101899.91;5074138;28;20021;-35
2023/04/02 07:07:55;;;;;;;5.25;3.53;;;;;;;3.61;100.00;101913.53;5073451;28;20032;-35
2023/04/02 07:10:21;;;;;;;4.93;2.50;;;;;;;3.70;100.00;101919.75;5073741;28;20025;-35
2023/04/02 07:12:46;;;;;;;5.47;2.60;;;;;;;3.61;100.00;101919.75;5073440;28;20020;-35
2023/04/02 07:15:16;;;;;;;3.37;2.03;;;;;;;3.73;100.00;101924.81;5073383;28;20021;-35
2023/04/02 07:17:42;;;;;;;4.70;2.63;;;;;;;3.80;100.00;101937.38;5074087;28;20054;-35
2023/04/02 07:20:23;;;;;;;5.28;2.53;;;;;;;3.80;100.00;101939.22;5074112;28;20024;-35
2023/04/02 07:22:48;;;;;;;3.92;2.17;;;;;;;3.63;100.00;101948.16;5075673;28;20032;-35
2023/04/02 07:25:14;;;;;;;2.77;1.80;;;;;;;3.67;100.00;101958.38;5077703;28;20024;-35
2023/04/02 07:27:40;;;;;;;4.15;2.15;;;;;;;3.82;100.00;101956.81;5077610;28;20024;-35
2023/04/02 07:30:06;;;;;;;3.58;2.58;;;;;;;3.58;100.00;101959.34;5077593;28;20448;-35
2023/04/02 07:32:31;;;;;;;4.30;2.28;;;;;;;3.72;100.00;101952.56;5077204;28;20024;-35
2023/04/02 07:34:57;;;;;;;3.37;2.43;;;;;;;3.75;100.00;101953.06;5077787;28;20109;-35
2023/04/02 07:37:22;;;;;;;5.20;2.17;;;;;;;3.72;100.00;101982.84;5076835;28;20031;-35
2023/04/02 07:39:47;;;;;;;4.43;2.10;;;;;;;3.59;100.00;101971.72;5077712;28;20028;-35
2023/04/02 07:42:13;;;;;;;4.93;2.10;;;;;;;3.67;100.00;101985.16;5076981;28;20031;-35
2023/04/02 07:44:38;;;;;;;4.07;2.10;;;;;;;3.69;100.00;101979.63;5077040;28;20021;-35
2023/04/02 07:47:04;;;;;;;5.43;2.10;;;;;;;3.79;100.00;101975.00;5076579;28;20031;-35
2023/04/02 07:49:29;;;;;;;3.88;2.13;;;;;;;3.84;100.00;101992.25;5077456;28;20016;-35
2023/04/02 07:51:54;;;;;;;3.17;1.80;;;;;;;3.93;100.00;101992.31;5076917;28;20104;-35
2023/04/02 07:54:20;;;;;;;3.90;1.70;;;;;;;3.97;100.00;101985.63;5077146;28;20027;-35
2023/04/02 07:56:45;;;;;;;3.63;1.90;;;;;;;4.00;100.00;101999.56;5076830;28;20056;-35
2023/04/02 07:59:10;;;;;;;4.13;1.93;;;;;;;4.03;100.00;102009.91;5076654;28;20020;-35
2023/04/02 08:01:36;;;;;;;5.13;2.07;;;;;;;3.96;100.00;102014.25;5076764;28;20052;-35
2023/04/02 08:04:04;;;;;;;3.17;1.93;;;;;;;3.71;100.00;102015.94;5076964;28;20024;-35
2023/04/02 08:06:29;;;;;;;4.60;1.48;;;;;;;3.69;100.00;102014.41;5076552;28;20457;-35
2023/04/02 08:08:56;;;;;;;2.28;1.50;;;;;;;3.81;100.00;102019.34;5076841;28;20036;-35
2023/04/02 08:11:22;;;;;;;3.22;1.80;;;;;;;3.91;100.00;102021.91;5076193;28;20129;-35
2023/04/02 08:13:47;;;;;;;2.70;1.65;;;;;;;3.98;100.00;102032.81;5076693;28;20030;-36
2023/04/02 08:16:13;;;;;;;3.50;1.77;;;;;;;4.00;100.00;102025.44;5076511;28;20407;-36
2023/04/02 08:18:39;;;;;;;4.03;1.40;;;;;;;3.88;100.00;102041.78;5077134;28;20022;-35
2023/04/02 08:21:09;;;;;;;3.40;1.48;;;;;;;3.88;100.00;102049.81;5076304;28;20472;-35
2023/04/02 08:23:35;;;;;;;3.60;1.58;;;;;;;3.88;100.00;102041.78;5076008;28;20047;-35
2023/04/02 08:26:01;;;;;;;3.28;1.55;;;;;;;4.05;100.00;102053.44;5076216;28;20035;-36
2023/04/02 08:28:27;;;;;;;5.22;1.65;;;;;;;4.06;100.00;102055.13;5076225;28;20029;-35
2023/04/02 08:30:52;;;;;;;3.53;1.73;;;;;;;4.05;100.00;102068.63;5075879;28;20173;-35
2023/04/02 08:33:18;;;;;;;5.27;1.60;;;;;;;3.91;100.00;102061.22;5075806;28;20020;-35
2023/04/02 08:35:45;;;;;;;4.32;1.75;;;;;;;4.01;100.00;102064.63;5075710;28;20021;-35
2023/04/02 08:38:16;;;;;;;4.00;1.80;;;;;;;4.04;100.00;102075.00;5076275;28;20031;-35
2023/04/02 08:40:44;;;;;;;3.72;1.48;;;;;;;3.97;100.00;102087.34;5077337;28;20032;-35
2023/04/02 08:43:28;;;;;;;3.03;1.40;;;;;;;4.04;100.00;102093.72;5075871;28;20028;-35
2023/04/02 08:46:05;;;;;;;2.40;1.30;;;;;;;4.01;100.00;102096.75;5076157;28;20029;-35
2023/04/02 08:48:33;;;;;;;3.67;1.33;;;;;;;3.96;100.00;102107.09;5075632;28;20024;-35
2023/04/02 08:51:00;;;;;;;3.05;1.20;;;;;;;3.86;100.00;102102.66;5076047;28;20033;-35
2023/04/02 08:53:31;;;;;;;3.13;1.40;;;;;;;3.87;100.00;102119.56;5075748;28;20021;-35
2023/04/02 08:56:26;;;;;;;2.95;1.80;;;;;;;3.86;100.00;102121.41;5076258;28;20074;-35
2023/04/02 08:59:02;;;;;;;3.20;1.38;;;;;;;3.86;100.00;102120.56;5075678;28;20364;-35
2023/04/02 09:01:48;;;;;;;3.27;1.70;;;;;;;3.82;100.00;102129.88;5075908;28;20128;-35
2023/04/02 09:04:17;;;;;;;4.25;1.65;;;;;;;3.92;100.00;102136.00;5075854;28;20354;-36
2023/04/02 09:06:44;;;;;;;3.22;1.65;;;;;;;3.76;100.00;102123.31;5075716;28;20028;-35
2023/04/02 09:09:12;;;;;;;3.63;1.70;;;;;;;3.96;100.00;102141.88;5075376;28;20116;-35
2023/04/02 09:11:50;;;;;;;4.95;1.70;;;;;;;4.10;100.00;102144.81;5075385;28;20089;-35
2023/04/02 09:14:40;;;;;;;5.60;1.83;;;;;;;4.02;100.00;102152.78;5075384;28;20071;-35
2023/04/02 09:17:17;;;;;;;2.95;1.23;;;;;;;3.92;100.00;102164.59;5074986;28;20020;-35
2023/04/02 09:19:50;;;;;;;5.50;1.50;;;;;;;3.87;100.00;102163.22;5075519;28;20035;-35
2023/04/02 09:22:20;;;;;;;3.15;1.33;;;;;;;4.03;100.00;102169.69;5075406;28;20021;-35
2023/04/02 09:24:56;;;;;;;2.58;1.50;;;;;;;3.93;100.00;102147.53;5075132;28;20210;-35
2023/04/02 09:27:24;;;;;;;4.03;1.67;;;;;;;4.01;100.00;102177.88;5075619;28;20349;-35
2023/04/02 09:30:02;;;;;;;2.85;1.30;;;;;;;4.02;100.00;102176.88;5074678;28;20027;-35
2023/04/02 09:32:33;;;;;;;3.33;1.58;;;;;;;3.98;100.00;102188.06;5075812;28;20121;-35
2023/04/02 09:35:11;;;;;;;3.25;1.42;;;;;;;4.13;100.00;102207.91;5074954;28;20029;-36
2023/04/02 09:37:37;;;;;;;4.70;2.10;;;;;;;3.87;100.00;102194.50;5074814;28;20107;-35
2023/04/02 09:40:25;;;;;;;2.90;1.58;;;;;;;3.88;100.00;102204.19;5074797;28;20099;-35
2023/04/02 09:43:11;;;;;;;2.15;1.40;;;;;;;3.95;100.00;102217.78;5075363;28;20024;-35
2023/04/02 09:45:37;;;;;;;2.92;1.73;;;;;;;3.69;100.00;102205.19;5074209;28;20419;-36
2023/04/02 09:48:34;;;;;;;2.83;1.30;;;;;;;3.70;100.00;102214.88;5074596;28;20059;-35
2023/04/02 09:51:15;;;;;;;3.15;1.30;;;;;;;3.80;100.00;102218.31;5074308;28;20029;-35
2023/04/02 09:53:42;;;;;;;4.75;2.08;;;;;;;3.88;100.00;102229.13;5074321;28;20480;-35
2023/04/02 09:56:15;;;;;;;3.20;1.48;;;;;;;3.90;100.00;102218.25;5074782;28;20021;-35
2023/04/02 09:58:42;;;;;;;4.10;1.42;;;;;;;3.88;100.00;102222.91;5074727;28;20029;-35
2023/04/02 10:01:26;;;;;;;3.17;1.65;;;;;;;3.87;100.00;102242.66;5074656;28;20044;-35
2023/04/02 10:03:51;;;;;;;2.35;1.33;;;;;;;3.97;100.00;102229.19;5074616;28;20027;-35
2023/04/02 10:06:17;;;;;;;3.67;1.30;;;;;;;3.98;100.00;102250.44;5074381;28;20111;-35
2023/04/02 10:08:44;;;;;;;3.97;1.17;;;;;;;3.92;100.00;102245.72;5074309;28;20270;-35
2023/04/02 10:11:15;;;;;;;2.63;1.45;;;;;;;4.13;100.00;102253.41;5074515;28;20025;-35
2023/04/02 10:13:53;;;;;;;4.38;1.50;;;;;;;4.16;100.00;102255.81;5074461;28;20029;-35
2023/04/02 10:16:25;;;;;;;2.40;1.40;;;;;;;4.06;100.00;102241.66;5074446;28;20024;-35
2023/04/02 10:18:55;;;;;;;2.60;1.58;;;;;;;4.13;100.00;102248.06;5074926;28;20020;-35
2023/04/02 10:21:36;;;;;;;3.80;1.58;;;;;;;4.30;100.00;102260.59;5074511;28;20024;-35
2023/04/02 10:24:09;;;;;;;2.78;1.35;;;;;;;4.28;100.00;102253.72;5073728;28;20020;-35
2023/04/02 10:26:40;;;;;;;3.17;1.35;;;;;;;4.28;100.00;102265.25;5074558;28;20024;-36
2023/04/02 10:29:53;;;;;;;2.85;1.63;;;;;;;4.27;100.00;102263.59;5073649;28;20472;-35
2023/04/02 10:32:33;;;;;;;3.80;1.58;;;;;;;4.42;100.00;102255.84;5054641;28;20094;-35
2023/04/02 10:35:27;;;;;;;3.22;1.42;;;;;;;4.59;100.00;102263.00;5074170;28;20060;-35
2023/04/02 10:38:23;;;;;;;3.35;1.40;;;;;;;4.63;100.00;102268.88;5073680;28;20027;-35
2023/04/02 10:41:12;;;;;;;5.55;3.50;;;;;;;4.73;100.00;102274.97;5074544;28;20498;-35
2023/04/02 10:44:01;;;;;;;3.40;1.65;;;;;;;4.64;100.00;102287.47;5074631;28;20047;-35
2023/04/02 10:47:04;;;;;;;4.68;1.80;;;;;;;4.96;100.00;102291.34;5073741;28;20031;-35
2023/04/02 10:50:17;;;;;;;3.92;1.77;;;;;;;5.09;100.00;102298.97;5073517;28;20023;-35
2023/04/02 10:52:52;;;;;;;3.97;1.52;;;;;;;5.25;100.00;102296.38;5073710;28;20107;-35
2023/04/02 10:55:22;;;;;;;5.85;1.52;;;;;;;5.24;100.00;102300.06;5073865;28;20111;-35
2023/04/02 10:57:50;;;;;;;2.47;1.65;;;;;;;5.24;100.00;102289.34;5073044;28;20567;-35
2023/04/02 11:00:25;;;;;;;4.32;1.90;;;;;;;5.47;100.00;102303.03;5073454;28;20036;-35
2023/04/02 11:02:56;;;;;;;2.83;1.40;;;;;;;5.37;100.00;102299.63;5073332;28;20036;-35
2023/04/02 11:05:35;;;;;;;3.80;1.52;;;;;;;5.47;100.00;102304.88;5073210;28;20026;-35
2023/04/02 11:08:18;;;;;;;4.75;1.98;;;;;;;5.48;100.00;102296.66;5073436;28;20016;-35
2023/04/02 11:10:49;;;;;;;3.38;1.58;;;;;;;5.49;100.00;102302.84;5073716;28;20078;-35
2023/04/02 11:13:27;;;;;;;3.67;1.52;;;;;;;5.45;100.00;102322.94;5073184;28;20042;-35
2023/04/02 11:15:53;;;;;;;3.17;1.40;;;;;;;5.55;100.00;102326.34;5073710;28;20056;-35
2023/04/02 11:18:25;;;;;;;3.42;1.40;;;;;;;5.56;100.00;102307.41;5073033;28;20427;-35
2023/04/02 11:20:59;;;;;;;2.33;1.30;;;;;;;5.62;100.00;102338.97;5073307;28;20437;-35
2023/04/02 11:23:32;;;;;;;4.15;1.48;;;;;;;5.51;100.00;102341.09;5073338;28;20024;-35
2023/04/02 11:26:28;;;;;;;3.05;1.50;;;;;;;5.52;100.00;102350.84;5073646;28;20028;-35
2023/04/02 11:29:21;;;;;;;3.15;1.50;;;;;;;5.64;100.00;102341.47;5073854;28;20033;-35
2023/04/02 11:31:49;;;;;;;3.58;1.38;;;;;;;5.59;100.00;102346.50;5072416;28;20036;-35
2023/04/02 11:34:40;;;;;;;4.60;1.60;;;;;;;5.52;99.72;102357.03;5073439;28;20103;-35
2023/04/02 11:37:27;;;;;;;3.03;1.27;;;;;;;5.56;100.00;102353.03;5073427;28;20025;-35
2023/04/02 11:39:56;;;;;;;3.33;1.50;;;;;;;5.57;100.00;102352.03;5074042;28;20028;-35
2023/04/02 11:42:23;;;;;;;4.55;1.48;;;;;;;5.57;99.47;102364.59;5073881;28;20379;-35
2023/04/02 11:44:49;;;;;;;2.80;1.40;;;;;;;5.53;100.00;102363.25;5072741;28;20024;-35
2023/04/02 11:47:15;;;;;;;2.88;1.48;;;;;;;5.53;100.00;102368.63;5073023;28;20100;-35
2023/04/02 11:50:04;;;;;;;3.60;1.40;;;;;;;5.47;98.95;102386.19;5073348;28;20036;-35
2023/04/02 11:52:37;;;;;;;3.55;1.30;;;;;;;5.67;100.00;102384.94;5072935;28;20476;-35
2023/04/02 11:55:23;;;;;;;3.22;1.58;;;;;;;5.73;99.99;102380.78;5072714;28;20044;-35
2023/04/02 11:58:19;;;;;;;3.95;1.75;;;;;;;5.78;99.63;102383.81;5072923;28;20028;-35
2023/04/02 12:00:51;;;;;;;2.25;1.02;;;;;;;5.88;99.53;102384.50;5072678;28;20028;-35